Allen, MI

10:10 PM EST on December 17, 2014 (GMT -0500)
West side Reading Township | Change Station
CLOSE
Current Station
Personal Weather Station
Location: Reading, MI
Elevation: 1031 ft
Nearby Weather Stations

Elev 1031 ft 41.85 °N, 84.80 °W | Updated 6 seconds ago

Overcast
Overcast
27.3 °F
Feels Like 22 °F
N
5.0
Wind Variable Wind from NNW
Gusts 8.0 mph

Today
High -- | Low -- °F
--% Chance of Precip.
Yesterday
High -- | Low -- °F
Precip. -- in
8:01 AM 5:09 PM
Waning Crescent, 18% visible
Pressure 30.15 in
Visibility 10.0 miles
Clouds Overcast 2200 ft
Windchill 22 °F
Dew Point 21 °F
Humidity 77%
Rainfall 0.00 in
Snow Depth Not available.
UV 0 out of 12
Pollen .10 out of 12
Air Quality Not available.
Flu Activity Not available.
METAR KJYM 180254Z AUTO 31011G19KT 10SM OVC022 M02/M06 A3015 RMK AO2 T10231060

More Conditions Fewer Conditions

Pressure 30.15 in
Visibility 10.0 miles
Clouds Overcast 2200 ft
Windchill 22 °F
Dew Point 21 °F
Humidity 77%
Rainfall 0.00 in
Snow Depth Not available.
UV 0 out of 12
Pollen .10 out of 12
Air Quality Not available.
Flu Activity Not available.
METAR KJYM 180254Z AUTO 31011G19KT 10SM OVC022 M02/M06 A3015 RMK AO2 T10231060

More Conditions Fewer Conditions

10-Day Weather Forecast

Almanac

Astronomy

Dec. 17, 2014 Rise Set
Actual Time
Civil Twilight
Nautical Twilight
Astronomical Twilight
Moon
Length of Visible Light
Length of Day
Tomorrow will be .
, % of the Moon is Illuminated

Today's Extremes

State Highs State Lows

Community

WunderPhotos

Upload Photos

1,778,874 photos uploaded!

WunderBlogs® & News

Nearby

Air Quality

  Air Quality AQ Index Pollutant
Not available.

Snow Depth

Station Depth Elevation

Earthquake Activity

City Distance Mag. Time & Date
Minimum magnitude displayed is 2.5.

Coastal Water Temperatures

Place Temperature

Nearby Weather Stations